Taouey — ZCAY9 — position and weather

sailwx.info

Track history (hours):
 
Tides and Currents Weather Stations Pressure Air Temp Water Temp Dewpoint Dewpoint Depression Visibility Wind Speed Wind Dir Waves Ship Positions

Taouey

Last reported at 2014-Sep-01 03:18 UTC. Time now 2014-Sep-01 23:50 UTC.
Position N 43°54' E 008°11'.

Length 58 m; draft 4 m.

MMSI: 310079000.

Date/timePositionNaut miles runAvg speedWind from/ knotsBaromVisibWave heightAir tempDewpointWater temp
2014-Sep-01 03:18N 43°54' E 008°11'810.1
2014-Sep-01 02:33N 43°60' E 008°18'10 9.7
2014-Sep-01 01:29N 44°08' E 008°27'9 9.2
2014-Sep-01 00:33N 44°11' E 008°38'1010.1
2014-Aug-31 23:34N 44°13' E 008°52'1010.3
2014-Aug-31 22:34N 44°16' E 009°06'6 6.3
2014-Aug-31 21:33N 44°19' E 009°13'0 0.0
2014-Aug-31 20:34N 44°19' E 009°13'0 0.0
2014-Aug-31 19:34N 44°19' E 009°13'0 0.0
2014-Aug-31 18:33N 44°19' E 009°13'0 0.0
2014-Aug-31 17:33N 44°19' E 009°13'0 0.0
2014-Aug-31 16:34N 44°19' E 009°13'0 0.0
2014-Aug-31 15:33N 44°19' E 009°13'0 0.0
2014-Aug-31 14:33N 44°19' E 009°13'0 0.0
2014-Aug-31 13:34N 44°19' E 009°13'0 0.0
2014-Aug-31 12:33N 44°19' E 009°13'0 0.0
2014-Aug-31 11:33N 44°19' E 009°13'0 0.0
2014-Aug-31 10:34N 44°19' E 009°13'0 0.0
2014-Aug-31 09:33N 44°19' E 009°13'0 0.0
2014-Aug-31 08:34N 44°19' E 009°13'0 0.0
2014-Aug-31 07:34N 44°19' E 009°13'0 0.0
2014-Aug-31 06:34N 44°19' E 009°13'0 0.0
2014-Aug-31 05:33N 44°19' E 009°13'0 0.0
2014-Aug-31 04:33N 44°19' E 009°13'0 0.0
2014-Aug-31 03:34N 44°19' E 009°13'0 0.0
2014-Aug-31 02:34N 44°19' E 009°13'0 0.0
2014-Aug-31 01:33N 44°19' E 009°13'0 0.0
2014-Aug-31 00:34N 44°19' E 009°13'0 0.0
2014-Aug-30 23:34N 44°19' E 009°13'0 0.0
2014-Aug-30 22:33N 44°19' E 009°13'0 0.0
2014-Aug-30 21:34N 44°19' E 009°13'0 0.0
2014-Aug-30 20:33N 44°19' E 009°13'0 0.0
2014-Aug-30 19:34N 44°19' E 009°13'0 0.0
2014-Aug-30 18:33N 44°19' E 009°13'0 0.0
2014-Aug-30 17:33N 44°19' E 009°13'0 0.0
2014-Aug-30 16:32N 44°19' E 009°13'0 0.0
2014-Aug-30 15:33N 44°19' E 009°13'0 0.0
2014-Aug-30 14:34N 44°19' E 009°13'0 0.0
2014-Aug-30 13:31N 44°19' E 009°13'0 0.0
2014-Aug-30 12:33N 44°19' E 009°13'0 0.0
2014-Aug-30 11:32N 44°19' E 009°13'0 0.0
2014-Aug-30 10:33N 44°19' E 009°13'0 0.0
2014-Aug-30 09:33N 44°19' E 009°13'0 0.0
2014-Aug-30 08:33N 44°19' E 009°13'0 0.0
2014-Aug-30 07:34N 44°19' E 009°13'0 0.0
2014-Aug-30 06:34N 44°19' E 009°13'3 3.1
2014-Aug-30 05:33N 44°16' E 009°11'1010.0
2014-Aug-30 04:33N 44°11' E 008°58'10 9.9
2014-Aug-30 03:33N 44°07' E 008°46'1010.0
2014-Aug-30 02:33N 44°02' E 008°34'10 9.8
2014-Aug-30 01:33N 43°57' E 008°22'10 9.9
2014-Aug-30 00:34N 43°52' E 008°10'10 9.7
2014-Aug-29 23:33N 43°48' E 007°58'21 9.8
2014-Aug-29 21:27N 43°44' E 007°30'3 0.8
2014-Aug-29 17:17N 43°44' E 007°26'0 0.0
2014-Aug-29 16:32N 43°44' E 007°26'0 0.0
2014-Aug-28 15:04N 43°44' E 007°26'0 0.0
2014-Aug-28 14:31N 43°44' E 007°26'  
2014-Aug-25 10:30N 43°44' E 007°26'1212.7
2014-Aug-25 09:33N 43°36' E 007°14'1211.8
2014-Aug-25 08:33N 43°29' E 007°01'1212.1
2014-Aug-25 07:33N 43°22' E 006°48'10 9.9
2014-Aug-25 06:33N 43°16' E 006°37'0 0.0
2014-Aug-25 05:33N 43°16' E 006°37'0 0.0
2014-Aug-25 04:33N 43°16' E 006°37'0 0.0
2014-Aug-25 03:33N 43°16' E 006°37'0 0.0
2014-Aug-25 02:33N 43°16' E 006°37'0 0.0
2014-Aug-25 01:33N 43°16' E 006°37'0 0.0
2014-Aug-25 00:33N 43°16' E 006°37'0 0.0
2014-Aug-24 23:33N 43°16' E 006°37'0 0.0
2014-Aug-24 22:33N 43°16' E 006°37'0 0.0
2014-Aug-24 21:34N 43°16' E 006°37'0 0.0
2014-Aug-24 20:34N 43°16' E 006°37'0 0.0
2014-Aug-24 19:33N 43°16' E 006°37'0 0.0
2014-Aug-24 18:34N 43°16' E 006°37'0 0.0
2014-Aug-24 17:33N 43°16' E 006°37'0 0.0
2014-Aug-24 16:33N 43°16' E 006°37'0 0.1
2014-Aug-24 15:33N 43°16' E 006°37'0 0.0
2014-Aug-24 14:34N 43°16' E 006°37'0 0.0
2014-Aug-24 13:33N 43°16' E 006°37'0 0.1
2014-Aug-24 12:34N 43°16' E 006°37'0 0.0
2014-Aug-24 11:33N 43°16' E 006°37'0 0.4
2014-Aug-24 10:33N 43°16' E 006°36'0 0.0
2014-Aug-24 09:34N 43°16' E 006°36'0 0.0
2014-Aug-24 08:33N 43°16' E 006°36'0 0.0
2014-Aug-24 07:33N 43°16' E 006°36'0 0.0
2014-Aug-24 06:33N 43°16' E 006°36'0 0.0
2014-Aug-24 05:34N 43°16' E 006°36'0 0.0
2014-Aug-24 04:33N 43°16' E 006°36'0 0.0
2014-Aug-24 03:33N 43°16' E 006°36'0 0.0
2014-Aug-24 02:33N 43°16' E 006°36'0 0.0
2014-Aug-24 01:33N 43°16' E 006°36'0 0.0
2014-Aug-24 00:33N 43°16' E 006°36'0 0.0
2014-Aug-23 23:34N 43°16' E 006°36'0 0.0
2014-Aug-23 22:34N 43°16' E 006°36'0 0.0
2014-Aug-23 21:33N 43°16' E 006°36'0 0.0
2014-Aug-23 20:33N 43°16' E 006°36'0 0.0
2014-Aug-23 19:33N 43°16' E 006°36'83 4.4
2014-Aug-23 00:34N 42°16' E 007°53'1712.3
2014-Aug-22 23:11N 42°03' E 008°08'  
Track history (hours):
 
Tides and Currents Weather Stations Pressure Air Temp Water Temp Dewpoint Dewpoint Depression Visibility Wind Speed Wind Dir Waves Ship Positions

Taouey

Last reported at 2014-Sep-01 03:18 UTC. Time now 2014-Sep-01 23:50 UTC.
Position N 43°54' E 008°11'.

Length 58 m; draft 4 m.

MMSI: 310079000.

Date/timePositionNaut miles runAvg speedWind from/ knotsBaromVisibWave heightAir tempDewpointWater temp
2014-Sep-01 03:18N 43°54' E 008°11'810.1
2014-Sep-01 02:33N 43°60' E 008°18'10 9.7
2014-Sep-01 01:29N 44°08' E 008°27'9 9.2
2014-Sep-01 00:33N 44°11' E 008°38'1010.1
2014-Aug-31 23:34N 44°13' E 008°52'1010.3
2014-Aug-31 22:34N 44°16' E 009°06'6 6.3
2014-Aug-31 21:33N 44°19' E 009°13'0 0.0
2014-Aug-31 20:34N 44°19' E 009°13'0 0.0
2014-Aug-31 19:34N 44°19' E 009°13'0 0.0
2014-Aug-31 18:33N 44°19' E 009°13'0 0.0
2014-Aug-31 17:33N 44°19' E 009°13'0 0.0
2014-Aug-31 16:34N 44°19' E 009°13'0 0.0
2014-Aug-31 15:33N 44°19' E 009°13'0 0.0
2014-Aug-31 14:33N 44°19' E 009°13'0 0.0
2014-Aug-31 13:34N 44°19' E 009°13'0 0.0
2014-Aug-31 12:33N 44°19' E 009°13'0 0.0
2014-Aug-31 11:33N 44°19' E 009°13'0 0.0
2014-Aug-31 10:34N 44°19' E 009°13'0 0.0
2014-Aug-31 09:33N 44°19' E 009°13'0 0.0
2014-Aug-31 08:34N 44°19' E 009°13'0 0.0
2014-Aug-31 07:34N 44°19' E 009°13'0 0.0
2014-Aug-31 06:34N 44°19' E 009°13'0 0.0
2014-Aug-31 05:33N 44°19' E 009°13'0 0.0
2014-Aug-31 04:33N 44°19' E 009°13'0 0.0
2014-Aug-31 03:34N 44°19' E 009°13'0 0.0
2014-Aug-31 02:34N 44°19' E 009°13'0 0.0
2014-Aug-31 01:33N 44°19' E 009°13'0 0.0
2014-Aug-31 00:34N 44°19' E 009°13'0 0.0
2014-Aug-30 23:34N 44°19' E 009°13'0 0.0
2014-Aug-30 22:33N 44°19' E 009°13'0 0.0
2014-Aug-30 21:34N 44°19' E 009°13'0 0.0
2014-Aug-30 20:33N 44°19' E 009°13'0 0.0
2014-Aug-30 19:34N 44°19' E 009°13'0 0.0
2014-Aug-30 18:33N 44°19' E 009°13'0 0.0
2014-Aug-30 17:33N 44°19' E 009°13'0 0.0
2014-Aug-30 16:32N 44°19' E 009°13'0 0.0
2014-Aug-30 15:33N 44°19' E 009°13'0 0.0
2014-Aug-30 14:34N 44°19' E 009°13'0 0.0
2014-Aug-30 13:31N 44°19' E 009°13'0 0.0
2014-Aug-30 12:33N 44°19' E 009°13'0 0.0
2014-Aug-30 11:32N 44°19' E 009°13'0 0.0
2014-Aug-30 10:33N 44°19' E 009°13'0 0.0
2014-Aug-30 09:33N 44°19' E 009°13'0 0.0
2014-Aug-30 08:33N 44°19' E 009°13'0 0.0
2014-Aug-30 07:34N 44°19' E 009°13'0 0.0
2014-Aug-30 06:34N 44°19' E 009°13'3 3.1
2014-Aug-30 05:33N 44°16' E 009°11'1010.0
2014-Aug-30 04:33N 44°11' E 008°58'10 9.9
2014-Aug-30 03:33N 44°07' E 008°46'1010.0
2014-Aug-30 02:33N 44°02' E 008°34'10 9.8
2014-Aug-30 01:33N 43°57' E 008°22'10 9.9
2014-Aug-30 00:34N 43°52' E 008°10'10 9.7
2014-Aug-29 23:33N 43°48' E 007°58'21 9.8
2014-Aug-29 21:27N 43°44' E 007°30'3 0.8
2014-Aug-29 17:17N 43°44' E 007°26'0 0.0
2014-Aug-29 16:32N 43°44' E 007°26'0 0.0
2014-Aug-28 15:04N 43°44' E 007°26'0 0.0
2014-Aug-28 14:31N 43°44' E 007°26'  
2014-Aug-25 10:30N 43°44' E 007°26'1212.7
2014-Aug-25 09:33N 43°36' E 007°14'1211.8
2014-Aug-25 08:33N 43°29' E 007°01'1212.1
2014-Aug-25 07:33N 43°22' E 006°48'10 9.9
2014-Aug-25 06:33N 43°16' E 006°37'0 0.0
2014-Aug-25 05:33N 43°16' E 006°37'0 0.0
2014-Aug-25 04:33N 43°16' E 006°37'0 0.0
2014-Aug-25 03:33N 43°16' E 006°37'0 0.0
2014-Aug-25 02:33N 43°16' E 006°37'0 0.0
2014-Aug-25 01:33N 43°16' E 006°37'0 0.0
2014-Aug-25 00:33N 43°16' E 006°37'0 0.0
2014-Aug-24 23:33N 43°16' E 006°37'0 0.0
2014-Aug-24 22:33N 43°16' E 006°37'0 0.0
2014-Aug-24 21:34N 43°16' E 006°37'0 0.0
2014-Aug-24 20:34N 43°16' E 006°37'0 0.0
2014-Aug-24 19:33N 43°16' E 006°37'0 0.0
2014-Aug-24 18:34N 43°16' E 006°37'0 0.0
2014-Aug-24 17:33N 43°16' E 006°37'0 0.0
2014-Aug-24 16:33N 43°16' E 006°37'0 0.1
2014-Aug-24 15:33N 43°16' E 006°37'0 0.0
2014-Aug-24 14:34N 43°16' E 006°37'0 0.0
2014-Aug-24 13:33N 43°16' E 006°37'0 0.1
2014-Aug-24 12:34N 43°16' E 006°37'0 0.0
2014-Aug-24 11:33N 43°16' E 006°37'0 0.4
2014-Aug-24 10:33N 43°16' E 006°36'0 0.0
2014-Aug-24 09:34N 43°16' E 006°36'0 0.0
2014-Aug-24 08:33N 43°16' E 006°36'0 0.0
2014-Aug-24 07:33N 43°16' E 006°36'0 0.0
2014-Aug-24 06:33N 43°16' E 006°36'0 0.0
2014-Aug-24 05:34N 43°16' E 006°36'0 0.0
2014-Aug-24 04:33N 43°16' E 006°36'0 0.0
2014-Aug-24 03:33N 43°16' E 006°36'0 0.0
2014-Aug-24 02:33N 43°16' E 006°36'0 0.0
2014-Aug-24 01:33N 43°16' E 006°36'0 0.0
2014-Aug-24 00:33N 43°16' E 006°36'0 0.0
2014-Aug-23 23:34N 43°16' E 006°36'0 0.0
2014-Aug-23 22:34N 43°16' E 006°36'0 0.0
2014-Aug-23 21:33N 43°16' E 006°36'0 0.0
2014-Aug-23 20:33N 43°16' E 006°36'0 0.0
2014-Aug-23 19:33N 43°16' E 006°36'83 4.4
2014-Aug-23 00:34N 42°16' E 007°53'1712.3
2014-Aug-22 23:11N 42°03' E 008°08'  

Dump ship's entire track history